Terminal Aerodrome Forecast
Issued by NWS

Home | Current Version | Previous Version | Text Only | Print | Product List | Glossary On
Versions: 1 2 3 4 5 6 7 8 9 10 11 12 13 14 15 16 17 18 19 20 21 22
000
FTUS41 KOKX 021400 AAA
TAFSWF
TAF AMD
KSWF 021433Z 0215/0318 04006KT P6SM OVC025
     FM021800 07006KT P6SM SCT035 BKN070
     FM030000 VRB03KT P6SM FEW030
     FM031500 12005KT P6SM FEW030
      AMD NOT SKED=

USA.gov is the U.S. government's official web portal to all federal, state and local government web resources and services.